Time;durP1;ratioP1;P1;durP2;ratioP2;P2;SDS_P1;SDS_P2;PMS_P1;PMS_P2;Temp;Humidity;BMP_temperature;BMP_pressure;BME280_temperature;BME280_humidity;BME280_pressure;Samples;Min_cycle;Max_cycle;Signal;HPM_P1;HPM_P2
2021/09/13 00:00:45;;;;;;;15.20;12.67;;;19.40;80.70;;;;;;5100412;28;20448;-84
2021/09/13 00:03:13;;;;;;;19.93;12.90;;;19.40;80.70;;;;;;5102151;28;20444;-84
2021/09/13 00:05:40;;;;;;;13.13;11.83;;;19.40;80.60;;;;;;5104251;28;20444;-84
2021/09/13 00:08:07;;;;;;;11.70;10.60;;;19.40;80.60;;;;;;5101119;28;20562;-84
2021/09/13 00:10:34;;;;;;;14.37;12.33;;;19.40;80.40;;;;;;5103702;28;20447;-84
2021/09/13 00:13:01;;;;;;;12.33;11.03;;;19.40;80.00;;;;;;5096000;28;20462;-82
2021/09/13 00:15:28;;;;;;;13.90;11.80;;;19.40;79.90;;;;;;5096102;28;20416;-82
2021/09/13 00:17:54;;;;;;;11.83;10.63;;;19.40;79.70;;;;;;5096715;28;20464;-82
2021/09/13 00:20:23;;;;;;;12.37;11.17;;;19.30;79.50;;;;;;5095280;28;20958;-82
2021/09/13 00:22:50;;;;;;;12.20;11.00;;;19.30;79.30;;;;;;5095653;28;20440;-82
2021/09/13 00:25:17;;;;;;;12.47;11.17;;;19.30;79.20;;;;;;5095729;28;20432;-82
2021/09/13 00:27:43;;;;;;;11.07;10.17;;;19.30;79.00;;;;;;5098288;28;20475;-83
2021/09/13 00:30:11;;;;;;;11.03;10.00;;;19.30;79.10;;;;;;5099993;28;20511;-82
2021/09/13 00:32:38;;;;;;;11.57;10.57;;;19.20;79.00;;;;;;5100066;28;20454;-82
2021/09/13 00:35:05;;;;;;;13.67;11.70;;;19.20;79.00;;;;;;5099895;28;20502;-82
2021/09/13 00:37:33;;;;;;;11.77;10.17;;;19.20;78.90;;;;;;5099500;28;20460;-81
2021/09/13 00:40:00;;;;;;;11.20;10.10;;;19.10;78.60;;;;;;5099330;28;20455;-81
2021/09/13 00:42:27;;;;;;;12.27;11.10;;;19.10;78.70;;;;;;5098643;28;20497;-81
2021/09/13 00:44:54;;;;;;;11.10;10.00;;;19.10;78.60;;;;;;5099397;28;20432;-81
2021/09/13 00:47:21;;;;;;;11.00;9.57;;;19.00;78.40;;;;;;5099140;28;20978;-82
2021/09/13 00:49:48;;;;;;;11.40;10.20;;;19.00;78.40;;;;;;5098661;28;20436;-82
2021/09/13 00:52:15;;;;;;;11.23;10.07;;;19.00;78.50;;;;;;5099948;28;20475;-82
2021/09/13 00:54:44;;;;;;;11.10;10.10;;;19.00;78.80;;;;;;5099393;28;20450;-82
2021/09/13 00:57:10;;;;;;;10.83;9.83;;;18.90;78.70;;;;;;5098681;28;20459;-82
2021/09/13 00:59:37;;;;;;;11.97;10.90;;;18.90;78.70;;;;;;5100226;28;20409;-82
2021/09/13 01:02:04;;;;;;;11.20;10.10;;;18.90;78.70;;;;;;5099924;28;20451;-82
2021/09/13 01:04:31;;;;;;;12.10;11.10;;;18.80;79.60;;;;;;5099575;28;20451;-82
2021/09/13 01:06:58;;;;;;;10.37;9.37;;;18.80;78.80;;;;;;5099265;28;20478;-82
2021/09/13 01:09:25;;;;;;;12.30;11.07;;;18.70;79.00;;;;;;5100325;28;20935;-82
2021/09/13 01:11:54;;;;;;;11.70;10.60;;;18.70;79.20;;;;;;5100128;28;20452;-82
2021/09/13 01:14:21;;;;;;;11.23;10.23;;;18.70;79.20;;;;;;5100400;28;20448;-82
2021/09/13 01:16:48;;;;;;;11.90;10.70;;;18.60;79.10;;;;;;5099342;28;20452;-81
2021/09/13 01:19:14;;;;;;;11.13;10.07;;;18.60;79.20;;;;;;5099324;28;20438;-81
2021/09/13 01:21:43;;;;;;;10.90;9.77;;;18.60;79.20;;;;;;5099106;28;20459;-81
2021/09/13 01:24:11;;;;;;;10.83;9.83;;;18.50;79.10;;;;;;5100037;28;20534;-81
2021/09/13 01:26:38;;;;;;;11.80;10.70;;;18.50;79.10;;;;;;5099770;28;20450;-81
2021/09/13 01:29:05;;;;;;;11.10;10.00;;;18.50;79.10;;;;;;5099248;28;20477;-80
2021/09/13 01:31:32;;;;;;;10.77;9.77;;;18.50;79.20;;;;;;5101801;28;20417;-80
2021/09/13 01:33:59;;;;;;;10.37;9.27;;;18.50;79.30;;;;;;5099122;28;20534;-81
2021/09/13 01:36:26;;;;;;;10.93;9.90;;;18.50;79.40;;;;;;5098360;28;20448;-81
2021/09/13 01:38:53;;;;;;;9.13;8.20;;;18.50;79.40;;;;;;5097469;28;20440;-82
2021/09/13 01:41:21;;;;;;;9.67;8.87;;;18.50;79.40;;;;;;5098255;28;20420;-82
2021/09/13 01:43:48;;;;;;;13.00;10.10;;;18.50;79.10;;;;;;5098124;28;20970;-82
2021/09/13 01:46:15;;;;;;;11.63;10.57;;;18.40;79.10;;;;;;5097976;28;20581;-81
2021/09/13 01:48:42;;;;;;;10.63;9.60;;;18.40;79.40;;;;;;5098241;28;20487;-81
2021/09/13 01:51:09;;;;;;;9.50;8.60;;;18.40;79.50;;;;;;5097636;28;20455;-81
2021/09/13 01:53:35;;;;;;;10.20;9.30;;;18.40;79.40;;;;;;5098793;28;20451;-81
2021/09/13 01:56:02;;;;;;;10.57;9.33;;;18.40;79.10;;;;;;5098196;28;20781;-82
2021/09/13 01:58:30;;;;;;;10.30;9.40;;;18.30;79.00;;;;;;5098836;28;20573;-82
2021/09/13 02:00:57;;;;;;;9.20;8.20;;;18.30;79.00;;;;;;5098658;28;20435;-82
2021/09/13 02:03:24;;;;;;;10.90;9.20;;;18.30;78.80;;;;;;5103382;28;20447;-85
2021/09/13 02:05:51;;;;;;;12.60;9.87;;;18.30;78.60;;;;;;5104096;28;20451;-85
2021/09/13 02:08:18;;;;;;;10.63;9.53;;;18.30;78.40;;;;;;5103474;28;20482;-85
2021/09/13 02:10:44;;;;;;;9.90;9.00;;;18.20;78.30;;;;;;5102752;28;20459;-85
2021/09/13 02:13:11;;;;;;;10.00;9.20;;;18.20;78.50;;;;;;5102816;28;20443;-85
2021/09/13 02:15:39;;;;;;;9.33;8.43;;;18.20;78.40;;;;;;5103050;28;20452;-85
2021/09/13 02:18:06;;;;;;;9.97;9.07;;;18.20;78.40;;;;;;5103558;28;20459;-85
2021/09/13 02:20:33;;;;;;;14.47;10.07;;;18.20;78.60;;;;;;5103032;28;20459;-84
2021/09/13 02:23:00;;;;;;;9.00;8.10;;;18.10;78.70;;;;;;5102867;28;20451;-84
2021/09/13 02:25:27;;;;;;;9.70;8.70;;;18.00;78.90;;;;;;5103118;28;20456;-84
2021/09/13 02:27:54;;;;;;;9.30;8.40;;;18.00;79.30;;;;;;5103142;28;20483;-84
2021/09/13 02:30:21;;;;;;;9.87;8.97;;;18.00;79.70;;;;;;5102891;28;20476;-84
2021/09/13 02:32:49;;;;;;;10.07;9.17;;;18.10;80.10;;;;;;5103049;28;20452;-84
2021/09/13 02:35:16;;;;;;;9.77;8.77;;;18.00;80.10;;;;;;5103743;28;20448;-84
2021/09/13 02:37:43;;;;;;;9.73;8.93;;;18.00;80.20;;;;;;5104078;28;20468;-84
2021/09/13 02:40:10;;;;;;;9.10;8.23;;;18.00;80.30;;;;;;5104740;28;20444;-84
2021/09/13 02:42:37;;;;;;;9.50;8.27;;;18.00;80.50;;;;;;5105497;28;20416;-84
2021/09/13 02:45:05;;;;;;;9.77;8.90;;;18.00;80.60;;;;;;5102748;28;20452;-83
2021/09/13 02:47:32;;;;;;;9.70;8.90;;;18.00;80.70;;;;;;5102818;28;20468;-83
2021/09/13 02:50:00;;;;;;;9.80;8.90;;;18.00;80.90;;;;;;5102911;28;20448;-84
2021/09/13 02:52:27;;;;;;;9.80;8.80;;;18.00;81.00;;;;;;5102685;28;20440;-84
2021/09/13 02:54:54;;;;;;;9.17;8.27;;;17.90;81.20;;;;;;5101547;28;20439;-84
2021/09/13 02:57:20;;;;;;;9.77;8.77;;;18.00;81.40;;;;;;5102418;28;20505;-84
2021/09/13 02:59:48;;;;;;;10.50;9.50;;;18.00;81.30;;;;;;5101690;28;20444;-85
2021/09/13 03:02:15;;;;;;;11.73;10.50;;;18.00;81.10;;;;;;5102782;28;20446;-84
2021/09/13 03:04:42;;;;;;;10.50;9.47;;;18.00;81.00;;;;;;5103273;28;20849;-85
2021/09/13 03:07:10;;;;;;;10.17;9.17;;;18.00;81.10;;;;;;5104250;28;20479;-85
2021/09/13 03:09:37;;;;;;;9.03;8.30;;;18.00;80.70;;;;;;5104242;28;20478;-85
2021/09/13 03:12:05;;;;;;;12.00;8.97;;;17.90;80.30;;;;;;5105028;28;20462;-85
2021/09/13 03:14:32;;;;;;;9.93;9.03;;;17.90;79.90;;;;;;5102811;28;20874;-85
2021/09/13 03:16:59;;;;;;;8.90;8.10;;;17.90;79.80;;;;;;5101818;28;20452;-85
2021/09/13 03:19:26;;;;;;;9.67;8.83;;;17.90;79.70;;;;;;5103566;28;20439;-84
2021/09/13 03:21:53;;;;;;;10.53;9.63;;;17.80;79.40;;;;;;5104716;28;20462;-83
2021/09/13 03:24:21;;;;;;;9.33;8.50;;;17.80;79.40;;;;;;5101406;28;20496;-83
2021/09/13 03:26:48;;;;;;;9.30;8.40;;;17.80;79.40;;;;;;5102811;28;20460;-85
2021/09/13 03:29:15;;;;;;;9.70;8.70;;;17.70;79.30;;;;;;5102327;28;20483;-85
2021/09/13 03:31:42;;;;;;;9.70;8.80;;;17.70;79.50;;;;;;5103090;28;20447;-85
2021/09/13 03:34:09;;;;;;;9.47;8.57;;;17.70;79.60;;;;;;5101811;28;20795;-85
2021/09/13 03:36:38;;;;;;;10.00;8.37;;;17.70;79.50;;;;;;5101973;28;20873;-84
2021/09/13 03:39:05;;;;;;;10.33;8.97;;;17.60;79.50;;;;;;5101053;28;20447;-85
2021/09/13 03:41:34;;;;;;;9.67;8.77;;;17.60;79.50;;;;;;5103540;28;20466;-85
2021/09/13 03:44:00;;;;;;;10.27;9.50;;;17.60;79.60;;;;;;5101784;28;20492;-84
2021/09/13 03:46:27;;;;;;;10.07;9.03;;;17.60;79.50;;;;;;5100971;28;20436;-83
2021/09/13 03:48:54;;;;;;;9.70;8.70;;;17.60;79.70;;;;;;5096462;28;20506;-82
2021/09/13 03:51:21;;;;;;;9.60;8.80;;;17.50;79.70;;;;;;5096170;28;20811;-82
2021/09/13 03:53:47;;;;;;;10.40;9.40;;;17.50;79.80;;;;;;5095960;28;20474;-82
2021/09/13 03:56:14;;;;;;;9.00;8.20;;;17.50;79.70;;;;;;5095992;28;20455;-82
2021/09/13 03:58:42;;;;;;;11.20;9.07;;;17.50;79.60;;;;;;5095890;28;20514;-83
2021/09/13 04:01:09;;;;;;;9.83;9.03;;;17.40;79.40;;;;;;5096443;28;20444;-81
2021/09/13 04:03:43;;;;;;;9.80;8.90;;;17.40;79.50;;;;;;5100413;28;20965;-79
2021/09/13 04:06:18;;;;;;;9.83;8.93;;;17.40;79.20;;;;;;5100074;28;20428;-79
2021/09/13 04:09:01;;;;;;;9.80;8.70;;;17.30;78.90;;;;;;5100310;28;20486;-80
2021/09/13 04:11:37;;;;;;;9.40;8.60;;;17.30;79.10;;;;;;5100995;28;20432;-80
2021/09/13 04:14:05;;;;;;;8.33;7.63;;;17.30;79.20;;;;;;5103604;28;20428;-83
2021/09/13 04:16:32;;;;;;;10.20;9.20;;;17.20;78.90;;;;;;5104830;28;20454;-83
2021/09/13 04:18:58;;;;;;;8.77;7.93;;;17.10;78.90;;;;;;5105341;28;20444;-83
2021/09/13 04:21:25;;;;;;;10.03;9.13;;;17.10;79.00;;;;;;5104623;28;20451;-83
2021/09/13 04:23:52;;;;;;;8.90;8.10;;;17.10;79.00;;;;;;5105441;28;20444;-83
2021/09/13 04:26:18;;;;;;;9.80;8.70;;;17.10;78.90;;;;;;5103936;28;20436;-83
2021/09/13 04:28:45;;;;;;;13.10;8.60;;;17.10;78.90;;;;;;5104506;28;20483;-83
2021/09/13 04:31:13;;;;;;;9.30;8.10;;;17.10;78.70;;;;;;5104846;28;20451;-83
2021/09/13 04:33:40;;;;;;;8.30;7.50;;;17.10;78.80;;;;;;5104759;28;20443;-83
2021/09/13 04:36:07;;;;;;;9.17;8.37;;;17.00;78.30;;;;;;5107723;28;20436;-85
2021/09/13 04:38:34;;;;;;;8.80;8.00;;;17.00;78.50;;;;;;5102210;28;20463;-88
2021/09/13 04:41:01;;;;;;;9.00;8.20;;;16.90;78.50;;;;;;5097300;28;20412;-88
2021/09/13 04:43:27;;;;;;;8.13;7.43;;;16.90;78.50;;;;;;5099784;28;20439;-86
2021/09/13 04:45:57;;;;;;;10.17;9.10;;;16.90;78.50;;;;;;5101210;28;20452;-86
2021/09/13 04:48:27;;;;;;;9.90;8.90;;;16.80;78.60;;;;;;5100008;28;20816;-86
2021/09/13 04:50:57;;;;;;;9.40;8.47;;;16.90;78.90;;;;;;5101252;28;20447;-87
2021/09/13 04:53:24;;;;;;;9.10;8.30;;;16.90;78.70;;;;;;5101154;28;20482;-86
2021/09/13 04:55:51;;;;;;;9.50;8.70;;;16.90;78.50;;;;;;5101355;28;20521;-87
2021/09/13 04:58:18;;;;;;;8.70;7.87;;;16.90;78.40;;;;;;5101165;28;20525;-86
2021/09/13 05:00:44;;;;;;;9.40;8.57;;;16.80;78.40;;;;;;5101520;28;20436;-84
2021/09/13 05:03:11;;;;;;;10.43;9.43;;;16.80;78.40;;;;;;5104025;28;20462;-84
2021/09/13 05:05:39;;;;;;;9.70;8.80;;;16.80;78.60;;;;;;5103619;28;20436;-84
2021/09/13 05:08:07;;;;;;;9.60;8.80;;;16.70;78.50;;;;;;5103346;28;20467;-83
2021/09/13 05:10:34;;;;;;;10.13;9.20;;;16.70;78.40;;;;;;5103996;28;20451;-83
2021/09/13 05:13:01;;;;;;;9.20;8.50;;;16.70;78.70;;;;;;5101853;28;20419;-83
2021/09/13 05:15:28;;;;;;;9.50;8.70;;;16.60;78.70;;;;;;5100630;28;20444;-87
2021/09/13 05:17:54;;;;;;;10.90;9.63;;;16.60;78.70;;;;;;5100129;28;20475;-86
2021/09/13 05:20:21;;;;;;;8.60;7.80;;;16.60;78.60;;;;;;5098512;28;20985;-87
2021/09/13 05:22:49;;;;;;;10.40;9.40;;;16.60;78.50;;;;;;5098707;28;20455;-87
2021/09/13 05:25:19;;;;;;;9.00;8.10;;;16.60;78.60;;;;;;5103587;28;20446;-86
2021/09/13 05:27:46;;;;;;;8.70;8.00;;;16.60;78.50;;;;;;5105702;28;20476;-86
2021/09/13 05:30:15;;;;;;;9.73;8.93;;;16.60;78.40;;;;;;5106541;28;20488;-85
2021/09/13 05:32:42;;;;;;;10.37;9.37;;;16.60;78.60;;;;;;5107456;28;20464;-86
2021/09/13 05:35:09;;;;;;;10.47;9.37;;;16.60;78.90;;;;;;5105405;28;20448;-83
2021/09/13 05:37:36;;;;;;;9.13;8.33;;;16.60;79.10;;;;;;5102162;28;20468;-85
2021/09/13 05:40:06;;;;;;;9.00;8.10;;;16.60;79.30;;;;;;5104221;28;20417;-84
2021/09/13 05:42:33;;;;;;;8.60;7.73;;;16.60;79.70;;;;;;5103546;28;20497;-83
2021/09/13 05:45:00;;;;;;;8.47;7.43;;;16.60;79.90;;;;;;5100083;28;20428;-82
2021/09/13 05:47:27;;;;;;;8.00;7.33;;;16.60;80.00;;;;;;5099844;28;20466;-82
2021/09/13 05:49:54;;;;;;;7.83;7.10;;;16.50;79.80;;;;;;5099204;28;20476;-82
2021/09/13 05:52:21;;;;;;;8.30;7.50;;;16.50;80.20;;;;;;5099346;28;20490;-82
2021/09/13 05:54:48;;;;;;;8.23;7.53;;;16.60;80.80;;;;;;5099683;28;20788;-82
2021/09/13 05:57:16;;;;;;;7.40;6.70;;;16.60;80.80;;;;;;5098868;28;20472;-82
2021/09/13 05:59:43;;;;;;;7.70;7.03;;;16.60;80.80;;;;;;5099816;28;20428;-82
2021/09/13 06:02:10;;;;;;;8.33;7.40;;;16.70;80.90;;;;;;5100319;28;20454;-82
2021/09/13 06:04:37;;;;;;;8.83;8.03;;;16.70;80.90;;;;;;5099447;28;20951;-82
2021/09/13 06:07:05;;;;;;;8.47;7.43;;;16.70;80.90;;;;;;5098896;28;20468;-82
2021/09/13 06:09:32;;;;;;;7.40;6.70;;;16.80;81.10;;;;;;5097572;28;20456;-81
2021/09/13 06:11:59;;;;;;;7.70;7.10;;;16.80;81.20;;;;;;5096881;28;20780;-81
2021/09/13 06:14:27;;;;;;;8.07;7.37;;;16.80;81.60;;;;;;5096966;28;20444;-80
2021/09/13 06:16:53;;;;;;;14.87;9.23;;;16.80;81.90;;;;;;5096849;28;20482;-81
2021/09/13 06:19:20;;;;;;;15.00;8.33;;;16.90;82.10;;;;;;5097612;28;20443;-81
2021/09/13 06:21:49;;;;;;;9.83;8.40;;;17.00;82.30;;;;;;5096777;28;20824;-80
2021/09/13 06:24:18;;;;;;;9.40;8.53;;;17.00;82.40;;;;;;5096821;28;20456;-80
2021/09/13 06:26:45;;;;;;;12.90;11.10;;;17.10;82.70;;;;;;5097583;28;20452;-81
2021/09/13 06:29:12;;;;;;;10.30;9.20;;;17.10;82.80;;;;;;5097238;28;20487;-81
2021/09/13 06:31:40;;;;;;;12.10;10.90;;;17.20;83.40;;;;;;5097392;28;20454;-81
2021/09/13 06:34:08;;;;;;;16.20;11.93;;;17.20;83.50;;;;;;5097197;28;20800;-81
2021/09/13 06:36:35;;;;;;;15.27;12.20;;;17.20;83.70;;;;;;5103392;28;20452;-80
2021/09/13 06:39:01;;;;;;;13.40;12.20;;;17.30;84.80;;;;;;5105961;28;20420;-80
2021/09/13 06:41:28;;;;;;;11.43;10.40;;;17.30;84.30;;;;;;5102067;28;20448;-80
2021/09/13 06:43:55;;;;;;;14.77;12.00;;;17.40;84.80;;;;;;5096819;28;20455;-80
2021/09/13 06:46:25;;;;;;;13.63;12.07;;;17.50;84.90;;;;;;5097342;28;20518;-80
2021/09/13 06:48:53;;;;;;;11.87;10.80;;;17.60;86.00;;;;;;5096629;28;20490;-81
2021/09/13 06:51:19;;;;;;;13.67;12.37;;;17.60;85.40;;;;;;5096941;28;20417;-81
2021/09/13 06:53:46;;;;;;;9.97;9.00;;;17.70;85.60;;;;;;5096929;28;20443;-80
2021/09/13 06:56:13;;;;;;;13.23;10.70;;;17.80;85.80;;;;;;5096127;28;20436;-80
2021/09/13 06:58:40;;;;;;;14.13;12.73;;;17.90;85.70;;;;;;5096111;28;20467;-81
2021/09/13 07:01:07;;;;;;;12.33;11.23;;;18.00;85.60;;;;;;5096401;28;20813;-80
2021/09/13 07:03:35;;;;;;;13.87;12.50;;;18.10;85.80;;;;;;5096405;28;20655;-80
2021/09/13 07:06:03;;;;;;;18.00;11.47;;;18.20;85.60;;;;;;5097123;28;20432;-80
2021/09/13 07:08:30;;;;;;;13.97;12.57;;;18.30;85.70;;;;;;5097312;28;20466;-80
2021/09/13 07:10:56;;;;;;;18.37;12.90;;;18.40;85.80;;;;;;5096773;28;20483;-80
2021/09/13 07:13:23;;;;;;;13.20;11.90;;;18.40;85.80;;;;;;5096248;28;20975;-80
2021/09/13 07:15:50;;;;;;;14.20;12.80;;;18.50;85.70;;;;;;5096418;28;20447;-80
2021/09/13 07:18:17;;;;;;;11.80;10.60;;;18.50;85.60;;;;;;5096464;28;20470;-80
2021/09/13 07:20:44;;;;;;;14.20;12.80;;;18.60;85.80;;;;;;5095774;28;20951;-80
2021/09/13 07:23:12;;;;;;;14.80;13.30;;;18.60;85.40;;;;;;5096192;28;20447;-79
2021/09/13 07:25:39;;;;;;;14.63;13.20;;;18.70;85.20;;;;;;5096142;28;20432;-79
2021/09/13 07:28:06;;;;;;;14.47;12.37;;;18.80;85.00;;;;;;5095843;28;20475;-81
2021/09/13 07:30:33;;;;;;;13.37;12.20;;;18.90;84.90;;;;;;5096198;28;20484;-80
2021/09/13 07:32:59;;;;;;;13.60;11.10;;;19.00;84.50;;;;;;5096139;28;20443;-79
2021/09/13 07:35:26;;;;;;;13.17;11.67;;;19.10;84.10;;;;;;5096405;28;20886;-82
2021/09/13 07:37:54;;;;;;;14.63;13.20;;;19.30;83.50;;;;;;5094748;28;20474;-81
2021/09/13 07:40:22;;;;;;;12.07;10.97;;;19.40;82.70;;;;;;5095991;28;20430;-81
2021/09/13 07:42:49;;;;;;;14.30;11.60;;;19.60;82.30;;;;;;5095400;28;20419;-81
2021/09/13 07:45:15;;;;;;;14.90;13.40;;;19.80;82.00;;;;;;5095939;28;20534;-81
2021/09/13 07:47:42;;;;;;;11.07;10.00;;;20.00;81.30;;;;;;5096154;28;20459;-81
2021/09/13 07:50:10;;;;;;;14.73;13.37;;;20.10;80.80;;;;;;5095468;28;20480;-81
2021/09/13 07:52:36;;;;;;;17.90;16.20;;;20.20;80.10;;;;;;5096513;28;20462;-80
2021/09/13 07:55:04;;;;;;;13.87;12.40;;;20.30;80.00;;;;;;5096344;28;20432;-81
2021/09/13 07:57:33;;;;;;;13.43;12.00;;;20.40;79.60;;;;;;5096060;28;20821;-80
2021/09/13 08:00:00;;;;;;;13.70;12.30;;;20.50;79.00;;;;;;5096546;28;20436;-80
2021/09/13 08:02:26;;;;;;;15.13;13.47;;;20.60;78.00;;;;;;5097379;28;20421;-82
2021/09/13 08:04:53;;;;;;;15.97;13.90;;;20.70;77.60;;;;;;5097088;28;20978;-82
2021/09/13 08:07:21;;;;;;;15.30;13.80;;;20.80;77.30;;;;;;5095751;28;20467;-82
2021/09/13 08:09:48;;;;;;;13.70;12.40;;;20.90;77.00;;;;;;5095688;28;20467;-82
2021/09/13 08:12:14;;;;;;;14.97;13.47;;;21.10;75.90;;;;;;5098758;28;20451;-82
2021/09/13 08:14:43;;;;;;;16.60;14.47;;;21.20;75.20;;;;;;5100394;28;20438;-82
2021/09/13 08:17:09;;;;;;;16.33;13.00;;;21.20;74.20;;;;;;5098982;28;20482;-83
2021/09/13 08:19:39;;;;;;;18.30;16.50;;;21.30;73.60;;;;;;5099235;28;20428;-82
2021/09/13 08:22:20;;;;;;;17.07;15.40;;;21.40;73.10;;;;;;5101351;28;20484;-83
2021/09/13 08:24:50;;;;;;;14.83;13.43;;;21.50;72.80;;;;;;5103499;28;20424;-81
2021/09/13 08:27:17;;;;;;;17.60;15.80;;;21.60;73.00;;;;;;5098816;28;20558;-82
2021/09/13 08:29:45;;;;;;;15.90;13.17;;;21.70;72.30;;;;;;5101263;28;20535;-81
2021/09/13 08:32:12;;;;;;;17.03;14.27;;;21.80;71.80;;;;;;5099520;28;20774;-81
2021/09/13 08:34:39;;;;;;;17.37;15.67;;;22.00;70.80;;;;;;5099742;28;20447;-81
2021/09/13 08:37:05;;;;;;;14.63;12.20;;;22.10;70.50;;;;;;5097889;28;20468;-81
2021/09/13 08:39:32;;;;;;;15.57;13.97;;;22.20;69.70;;;;;;5099513;28;20427;-81
2021/09/13 08:42:00;;;;;;;18.60;15.23;;;22.40;69.20;;;;;;5099348;28;20439;-81
2021/09/13 08:44:27;;;;;;;17.53;15.67;;;22.60;69.10;;;;;;5096108;28;20888;-80
2021/09/13 08:47:01;;;;;;;17.60;15.40;;;22.90;68.60;;;;;;5095004;28;20479;-81
2021/09/13 08:49:30;;;;;;;14.90;12.80;;;23.20;68.00;;;;;;5101647;28;20437;-81
2021/09/13 08:51:58;;;;;;;19.90;17.80;;;23.50;67.00;;;;;;5100487;28;20543;-81
2021/09/13 08:54:29;;;;;;;24.23;20.37;;;23.80;65.90;;;;;;5100653;28;20443;-80
2021/09/13 08:56:59;;;;;;;16.13;14.60;;;24.10;65.00;;;;;;5101502;28;20555;-81
2021/09/13 08:59:27;;;;;;;15.07;13.43;;;24.50;64.10;;;;;;5103745;28;20808;-81
2021/09/13 09:01:57;;;;;;;18.93;16.13;;;24.80;62.60;;;;;;5099213;28;20448;-81
2021/09/13 09:04:24;;;;;;;19.90;17.90;;;25.00;61.50;;;;;;5098066;28;20540;-82
2021/09/13 09:06:51;;;;;;;20.37;18.23;;;25.30;60.50;;;;;;5098258;28;20444;-79
2021/09/13 09:09:20;;;;;;;16.03;14.50;;;25.50;59.70;;;;;;5101726;28;20428;-79
2021/09/13 09:12:03;;;;;;;29.47;26.57;;;25.70;58.60;;;;;;5104484;28;20431;-79
2021/09/13 09:14:35;;;;;;;19.50;17.63;;;25.80;57.70;;;;;;5103185;28;20470;-79
2021/09/13 09:17:10;;;;;;;19.80;17.97;;;25.80;57.30;;;;;;5099936;28;20563;-79
2021/09/13 09:19:39;;;;;;;17.30;15.60;;;25.90;57.30;;;;;;5101080;28;20439;-79
2021/09/13 09:22:21;;;;;;;14.37;13.07;;;26.10;57.50;;;;;;5101652;28;20459;-79
2021/09/13 09:24:51;;;;;;;17.13;15.57;;;26.40;56.80;;;;;;5100792;28;20458;-79
2021/09/13 09:27:21;;;;;;;17.20;15.50;;;26.60;56.10;;;;;;5099160;28;20505;-79
2021/09/13 09:29:48;;;;;;;20.63;18.63;;;26.80;55.50;;;;;;5097556;28;20839;-79
2021/09/13 09:32:25;;;;;;;18.73;16.87;;;26.90;55.10;;;;;;5099805;28;20436;-79
2021/09/13 09:34:54;;;;;;;22.07;19.77;;;26.90;54.90;;;;;;5098852;28;20786;-79
2021/09/13 09:37:24;;;;;;;15.07;13.87;;;27.00;54.80;;;;;;5097311;28;20464;-79
2021/09/13 09:39:54;;;;;;;15.27;14.03;;;27.10;54.50;;;;;;5099708;28;20528;-79
2021/09/13 09:45:27;;;;;;;15.90;14.40;;;27.50;53.40;;;;;;5094882;28;20448;-79
2021/09/13 09:48:09;;;;;;;17.43;15.70;;;27.70;52.60;;;;;;5096200;28;20471;-79
2021/09/13 09:50:36;;;;;;;16.57;15.17;;;27.90;52.20;;;;;;5095788;28;20487;-79
2021/09/13 09:53:16;;;;;;;14.33;13.03;;;28.00;51.80;;;;;;5096142;28;20420;-78
2021/09/13 09:55:44;;;;;;;16.43;14.97;;;28.10;51.30;;;;;;5096401;28;20448;-79
2021/09/13 09:58:13;;;;;;;19.47;17.67;;;28.10;51.00;;;;;;5096904;28;20479;-79
2021/09/13 10:00:41;;;;;;;21.97;19.90;;;28.10;50.80;;;;;;5095651;28;20444;-79
2021/09/13 10:03:09;;;;;;;15.90;14.40;;;28.20;50.80;;;;;;5095671;28;20455;-80
2021/09/13 10:05:36;;;;;;;15.70;14.20;;;28.30;50.80;;;;;;5096620;28;20927;-79
2021/09/13 10:08:04;;;;;;;22.63;20.67;;;28.40;50.60;;;;;;5098495;28;20471;-79
2021/09/13 10:10:32;;;;;;;16.03;14.47;;;28.60;50.00;;;;;;5095107;28;20475;-79
2021/09/13 10:13:00;;;;;;;15.13;13.37;;;28.90;49.10;;;;;;5097088;28;20538;-79
2021/09/13 10:15:27;;;;;;;18.13;16.27;;;29.10;48.30;;;;;;5095059;28;20431;-78
2021/09/13 10:17:54;;;;;;;15.93;14.43;;;29.30;47.50;;;;;;5098740;28;20472;-79
2021/09/13 10:20:24;;;;;;;13.43;12.23;;;29.20;47.40;;;;;;5099330;28;20444;-79
2021/09/13 10:22:54;;;;;;;17.47;15.67;;;29.20;47.80;;;;;;5097052;28;20432;-79
2021/09/13 10:25:21;;;;;;;17.33;15.73;;;29.10;48.00;;;;;;5098558;28;20451;-79
2021/09/13 10:27:49;;;;;;;19.37;17.60;;;29.10;48.00;;;;;;5097422;28;20471;-80
2021/09/13 10:30:19;;;;;;;13.10;11.90;;;28.90;47.60;;;;;;5098992;28;20471;-79
2021/09/13 10:32:49;;;;;;;13.60;11.50;;;28.60;47.90;;;;;;5102063;28;20500;-78
2021/09/13 10:35:17;;;;;;;13.70;12.30;;;28.60;48.30;;;;;;5101623;28;20444;-79
2021/09/13 10:37:48;;;;;;;11.07;10.00;;;28.70;48.70;;;;;;5097956;28;20468;-80
2021/09/13 10:40:25;;;;;;;10.57;9.30;;;29.00;48.50;;;;;;5097152;28;20432;-80
2021/09/13 10:42:54;;;;;;;10.17;9.10;;;29.50;47.20;;;;;;5097039;28;20435;-79
2021/09/13 10:45:24;;;;;;;17.57;16.07;;;30.20;45.90;;;;;;5096190;28;20954;-79
2021/09/13 10:48:07;;;;;;;13.47;12.20;;;30.60;44.00;;;;;;5096257;28;20476;-79
2021/09/13 10:50:40;;;;;;;11.20;10.10;;;30.60;42.50;;;;;;5095655;28;20479;-79
2021/09/13 10:53:33;;;;;;;16.00;14.60;;;30.60;42.90;;;;;;5096072;28;20440;-79
2021/09/13 10:56:03;;;;;;;11.33;10.23;;;30.90;42.50;;;;;;5095849;28;20538;-79
2021/09/13 10:58:40;;;;;;;11.57;9.03;;;31.00;42.10;;;;;;5097259;28;20460;-79
2021/09/13 11:01:09;;;;;;;14.47;13.27;;;31.00;42.30;;;;;;5097139;28;20438;-80
2021/09/13 11:03:47;;;;;;;14.63;13.20;;;31.40;42.00;;;;;;5095991;28;20450;-80
2021/09/13 11:06:38;;;;;;;14.40;11.83;;;31.80;39.70;;;;;;5097923;28;20431;-80
2021/09/13 11:09:08;;;;;;;9.43;8.57;;;32.30;38.10;;;;;;5098128;28;20455;-80
2021/09/13 11:11:38;;;;;;;11.40;10.37;;;32.70;37.80;;;;;;5098230;28;20475;-79
2021/09/13 11:14:08;;;;;;;8.67;7.97;;;33.00;37.30;;;;;;5095076;28;20435;-79
2021/09/13 11:16:37;;;;;;;9.27;8.37;;;32.90;36.60;;;;;;5094258;28;21019;-79
2021/09/13 11:19:09;;;;;;;11.40;10.40;;;32.90;37.40;;;;;;5095238;28;20419;-79
2021/09/13 11:21:37;;;;;;;8.70;7.90;;;32.90;36.70;;;;;;5095203;28;20419;-79
2021/09/13 11:24:07;;;;;;;13.17;12.07;;;32.60;37.30;;;;;;5095524;28;20443;-79
2021/09/13 11:26:37;;;;;;;11.83;10.93;;;32.40;38.10;;;;;;5095752;28;20412;-79
2021/09/13 11:29:06;;;;;;;12.50;8.43;;;32.60;37.60;;;;;;5095988;28;20447;-79
2021/09/13 11:31:36;;;;;;;10.10;9.20;;;32.70;36.90;;;;;;5095501;28;20471;-79
2021/09/13 11:34:05;;;;;;;11.30;10.40;;;32.80;37.10;;;;;;5097562;28;20930;-80
2021/09/13 11:36:32;;;;;;;9.30;8.50;;;32.70;35.50;;;;;;5097211;28;20440;-81
2021/09/13 11:39:04;;;;;;;9.57;8.63;;;32.50;36.20;;;;;;5097977;28;20455;-80
2021/09/13 11:41:33;;;;;;;8.53;7.80;;;32.20;37.20;;;;;;5096824;28;20887;-78
2021/09/13 11:44:05;;;;;;;10.07;9.20;;;32.00;38.20;;;;;;5095663;28;20443;-79
2021/09/13 11:46:33;;;;;;;9.93;9.03;;;31.80;38.70;;;;;;5094064;28;20451;-79
2021/09/13 11:49:17;;;;;;;11.97;10.77;;;31.60;39.10;;;;;;5093721;28;20416;-79
2021/09/13 11:52:04;;;;;;;11.63;10.60;;;31.70;38.20;;;;;;5096630;28;20490;-79
2021/09/13 11:54:33;;;;;;;11.43;10.27;;;31.80;37.90;;;;;;5101980;28;20797;-80
2021/09/13 11:57:01;;;;;;;9.23;8.33;;;31.60;37.80;;;;;;5103644;28;20467;-80
2021/09/13 11:59:27;;;;;;;7.97;7.23;;;31.40;38.00;;;;;;5099956;28;20447;-80
2021/09/13 12:01:59;;;;;;;9.23;8.43;;;31.10;39.10;;;;;;5101549;28;20443;-80
2021/09/13 12:04:27;;;;;;;9.00;8.13;;;30.80;40.10;;;;;;5099467;28;20459;-80
2021/09/13 12:07:08;;;;;;;9.53;8.63;;;30.50;40.60;;;;;;5096849;28;20475;-80
2021/09/13 12:09:36;;;;;;;9.27;7.30;;;30.40;41.50;;;;;;5093880;28;20442;-78
2021/09/13 12:12:06;;;;;;;8.40;7.60;;;30.30;41.90;;;;;;5093289;28;20486;-78
2021/09/13 12:14:34;;;;;;;9.20;8.37;;;30.60;41.70;;;;;;5100154;28;20489;-79
2021/09/13 12:17:10;;;;;;;11.27;9.03;;;31.30;40.20;;;;;;5099646;28;20467;-80
2021/09/13 12:19:38;;;;;;;11.07;10.20;;;31.70;38.70;;;;;;5106284;28;20543;-80
2021/09/13 12:22:05;;;;;;;9.10;8.40;;;31.90;36.80;;;;;;5095446;28;20519;-79
2021/09/13 12:24:33;;;;;;;7.50;6.80;;;32.00;35.20;;;;;;5098791;28;20435;-79
2021/09/13 12:27:15;;;;;;;6.67;6.10;;;32.40;35.80;;;;;;5101033;28;20471;-79
2021/09/13 12:29:57;;;;;;;8.77;8.07;;;33.00;36.10;;;;;;5103339;28;20427;-79
2021/09/13 12:32:26;;;;;;;9.73;8.83;;;33.70;34.20;;;;;;5104961;28;20534;-79
2021/09/13 12:34:58;;;;;;;6.97;6.27;;;34.40;32.70;;;;;;5104634;28;20438;-81
2021/09/13 12:37:29;;;;;;;7.87;7.07;;;35.00;32.10;;;;;;5101986;28;20491;-81
2021/09/13 12:40:06;;;;;;;7.83;7.13;;;35.50;31.60;;;;;;5100121;28;20442;-81
2021/09/13 12:42:34;;;;;;;7.50;6.90;;;35.90;30.80;;;;;;5101380;28;20474;-82
2021/09/13 12:45:03;;;;;;;6.73;6.13;;;36.10;30.00;;;;;;5101839;28;20427;-82